aviador You're here:

KHLR Decoded Metar

FORT HOOD in TX, USA
Report Time2018-01-18 09:58:00
UTC Time2018-01-18 10:06:05
Flight Rules vfr VFR
WindCalm
Visibility9999 m
Phenomena:N/A
Clouds:N/A
Expected CloudBase > 2,400 ft AGL from Temp-Dew spread
CeilingNone
Temp-7°C (ISA -20)
Dew Point-13°C (63% RH)
AAT-10.2°C
QNH1033 hPa
Density Alt-2,215 ft
Elevation928 ft
Report Wrong Elevation
Raw Report
KHLR 180958Z AUTO 00000KT 10SM CLR M07/M13 A3050 RMK AO2 SLP337
T10661129=

Extra information for KHLR:More info

Metar Taf Metar & Taf Last 4 Metars F.Rules Stats Wind Profile Meteogram Temp Stats Airport Information Weather charts Add Link Nearby VenuesMetar ALERT Operation Metar Decoded Social comments

AIRNAV info for KHLR